Ana Sayfa
METAR-TAF:

METAR-TAF

Havaalanları :

Jimmy Lake, Saskatchewan, Kanada

Enlem: 54-55N, Boylam: 109-57W, yükseklik: 658 m

Güncel hava durumu gözlemi

Rapor saat 11:00 UTC de 32 dakika önce yapıldı.
Sakin rüzgar
Sıcaklık 6°C
Nem 49%
Basınç 1020 hPa
Görüş mesafesi: 14.5 km
Açık gökyüzü

METAR: CWHN 201100Z AUTO 00000KT 9SM CLR 06/M04 A3011 RMK SLP213

Saat: 05:32 (11:32 UTC)


TAF: eksik

4.000'den fazla havaalanı için hava durumu gözlemleri ve tahminleri (METAR ve TAF raporları).

Kullanılabilir istasyonlar harita üzerinde sarı ve kırmızı noktalarla gösterilir.

İstasyonun adını görmek için fareyi noktanın üzerinde gezdirin.

Sonrasında hava gözlem ve tahminlerini görmek için tıklayın.

Haritayı değiştirmek için: yaklaştırmak için siyah artı işaretli yeşil düğmeye ve uzaklaştırmak için de eksi işaretli düğmeye hızla tıklayın; bitişik haritalar için yeşil okları kullanın.


METAR-TAF: